Vermillion, South Dakota
Current Conditions -  °F | °C
As of 10:15 AM on Wednesday 28 Jan 2015 (Local Time) from KYKN Reporting Station
Clear Clear  
Wind Chill: -1°   Ceiling: Unl
Heat Index:   Visibility: 10mi
Dew Point: -1°   Wind: 10mph
Humidity: 75%   Direction: 150°SSE
Pressure: 29.76"   Gusts: NA
Location:  42.79°N, 96.93°W
Report Text: KYKN 281615Z AUTO 15009KT 10SM CLR 03/M01 A2976 RMK AO1
Loading
Personal Weather Stations






























Interactive Weather Map New forecast layout! Learn more

10-Day Weather Forecast

Advertisements
Track Severe Weather on mobile